sensor_id;sensor_type;location;lat;lon;timestamp;P1;durP1;ratioP1;P2;durP2;ratioP2
14203;SDS011;7185;51.854;6.622;2022-08-02T00:00:43;6.72;;;2.97;;
14203;SDS011;7185;51.854;6.622;2022-08-02T00:03:15;4.95;;;2.50;;
14203;SDS011;7185;51.854;6.622;2022-08-02T00:05:46;8.85;;;3.15;;
14203;SDS011;7185;51.854;6.622;2022-08-02T00:08:18;6.13;;;2.95;;
14203;SDS011;7185;51.854;6.622;2022-08-02T00:10:49;8.38;;;3.38;;
14203;SDS011;7185;51.854;6.622;2022-08-02T00:13:23;6.25;;;3.22;;
14203;SDS011;7185;51.854;6.622;2022-08-02T00:15:54;7.15;;;3.17;;
14203;SDS011;7185;51.854;6.622;2022-08-02T00:18:26;8.77;;;3.45;;
14203;SDS011;7185;51.854;6.622;2022-08-02T00:20:58;6.30;;;3.63;;
14203;SDS011;7185;51.854;6.622;2022-08-02T00:23:29;7.07;;;3.45;;
14203;SDS011;7185;51.854;6.622;2022-08-02T00:26:01;9.52;;;3.47;;
14203;SDS011;7185;51.854;6.622;2022-08-02T00:28:34;5.82;;;3.35;;
14203;SDS011;7185;51.854;6.622;2022-08-02T00:31:06;7.40;;;3.28;;
14203;SDS011;7185;51.854;6.622;2022-08-02T00:33:40;9.80;;;3.42;;
14203;SDS011;7185;51.854;6.622;2022-08-02T00:36:11;7.63;;;3.58;;
14203;SDS011;7185;51.854;6.622;2022-08-02T00:38:43;6.97;;;3.55;;
14203;SDS011;7185;51.854;6.622;2022-08-02T00:41:16;5.97;;;3.15;;
14203;SDS011;7185;51.854;6.622;2022-08-02T00:43:50;4.97;;;3.33;;
14203;SDS011;7185;51.854;6.622;2022-08-02T00:46:22;5.55;;;3.38;;
14203;SDS011;7185;51.854;6.622;2022-08-02T00:48:54;6.97;;;3.58;;
14203;SDS011;7185;51.854;6.622;2022-08-02T00:51:26;7.72;;;3.95;;
14203;SDS011;7185;51.854;6.622;2022-08-02T00:53:57;10.45;;;4.28;;
14203;SDS011;7185;51.854;6.622;2022-08-02T00:56:29;9.30;;;3.78;;
14203;SDS011;7185;51.854;6.622;2022-08-02T00:59:02;6.78;;;3.60;;
14203;SDS011;7185;51.854;6.622;2022-08-02T01:01:34;7.95;;;3.20;;
14203;SDS011;7185;51.854;6.622;2022-08-02T01:04:09;7.00;;;3.85;;
14203;SDS011;7185;51.854;6.622;2022-08-02T01:06:43;7.93;;;3.22;;
14203;SDS011;7185;51.854;6.622;2022-08-02T01:09:14;7.65;;;3.90;;
14203;SDS011;7185;51.854;6.622;2022-08-02T01:11:46;8.93;;;4.03;;
14203;SDS011;7185;51.854;6.622;2022-08-02T01:14:19;10.00;;;3.95;;
14203;SDS011;7185;51.854;6.622;2022-08-02T01:16:55;6.47;;;3.40;;
14203;SDS011;7185;51.854;6.622;2022-08-02T01:19:35;7.03;;;3.38;;
14203;SDS011;7185;51.854;6.622;2022-08-02T01:22:27;9.27;;;3.58;;
14203;SDS011;7185;51.854;6.622;2022-08-02T01:25:31;6.95;;;3.83;;
14203;SDS011;7185;51.854;6.622;2022-08-02T01:28:22;5.78;;;3.38;;
14203;SDS011;7185;51.854;6.622;2022-08-02T01:31:00;9.27;;;3.10;;
14203;SDS011;7185;51.854;6.622;2022-08-02T01:33:35;7.20;;;3.53;;
14203;SDS011;7185;51.854;6.622;2022-08-02T01:36:12;5.72;;;4.25;;
14203;SDS011;7185;51.854;6.622;2022-08-02T01:38:47;6.40;;;3.58;;
14203;SDS011;7185;51.854;6.622;2022-08-02T01:41:20;7.57;;;3.53;;
14203;SDS011;7185;51.854;6.622;2022-08-02T01:43:56;7.88;;;3.42;;
14203;SDS011;7185;51.854;6.622;2022-08-02T01:46:30;5.95;;;3.33;;
14203;SDS011;7185;51.854;6.622;2022-08-02T01:49:04;6.32;;;3.22;;
14203;SDS011;7185;51.854;6.622;2022-08-02T01:51:39;10.88;;;3.97;;
14203;SDS011;7185;51.854;6.622;2022-08-02T01:54:31;10.63;;;3.78;;
14203;SDS011;7185;51.854;6.622;2022-08-02T01:57:04;6.65;;;3.35;;
14203;SDS011;7185;51.854;6.622;2022-08-02T01:59:41;7.55;;;3.35;;
14203;SDS011;7185;51.854;6.622;2022-08-02T02:02:15;8.70;;;3.50;;
14203;SDS011;7185;51.854;6.622;2022-08-02T02:04:48;7.57;;;3.88;;
14203;SDS011;7185;51.854;6.622;2022-08-02T02:07:23;5.80;;;3.30;;
14203;SDS011;7185;51.854;6.622;2022-08-02T02:09:56;7.20;;;3.33;;
14203;SDS011;7185;51.854;6.622;2022-08-02T02:12:30;7.13;;;3.38;;
14203;SDS011;7185;51.854;6.622;2022-08-02T02:15:06;5.82;;;3.22;;
14203;SDS011;7185;51.854;6.622;2022-08-02T02:20:23;8.50;;;3.65;;
14203;SDS011;7185;51.854;6.622;2022-08-02T02:22:56;6.68;;;3.47;;
14203;SDS011;7185;51.854;6.622;2022-08-02T02:25:29;7.15;;;3.55;;
14203;SDS011;7185;51.854;6.622;2022-08-02T02:28:02;8.30;;;3.80;;
14203;SDS011;7185;51.854;6.622;2022-08-02T02:30:38;7.75;;;4.07;;
14203;SDS011;7185;51.854;6.622;2022-08-02T02:33:12;9.98;;;3.83;;
14203;SDS011;7185;51.854;6.622;2022-08-02T02:35:49;7.90;;;4.07;;
14203;SDS011;7185;51.854;6.622;2022-08-02T02:38:23;7.95;;;3.95;;
14203;SDS011;7185;51.854;6.622;2022-08-02T02:40:59;6.07;;;3.85;;
14203;SDS011;7185;51.854;6.622;2022-08-02T02:43:33;6.65;;;3.83;;
14203;SDS011;7185;51.854;6.622;2022-08-02T02:46:08;7.65;;;3.70;;
14203;SDS011;7185;51.854;6.622;2022-08-02T02:48:41;7.00;;;3.80;;
14203;SDS011;7185;51.854;6.622;2022-08-02T02:51:13;5.60;;;3.90;;
14203;SDS011;7185;51.854;6.622;2022-08-02T02:53:45;6.15;;;3.60;;
14203;SDS011;7185;51.854;6.622;2022-08-02T02:56:19;8.63;;;4.20;;
14203;SDS011;7185;51.854;6.622;2022-08-02T02:58:51;9.75;;;4.55;;
14203;SDS011;7185;51.854;6.622;2022-08-02T03:01:25;7.43;;;3.92;;
14203;SDS011;7185;51.854;6.622;2022-08-02T03:04:00;9.18;;;3.80;;
14203;SDS011;7185;51.854;6.622;2022-08-02T03:06:33;8.05;;;4.30;;
14203;SDS011;7185;51.854;6.622;2022-08-02T03:09:06;8.00;;;3.80;;
14203;SDS011;7185;51.854;6.622;2022-08-02T03:11:39;8.45;;;4.55;;
14203;SDS011;7185;51.854;6.622;2022-08-02T03:14:11;6.78;;;4.13;;
14203;SDS011;7185;51.854;6.622;2022-08-02T03:16:46;10.48;;;4.53;;
14203;SDS011;7185;51.854;6.622;2022-08-02T03:19:20;11.65;;;4.85;;
14203;SDS011;7185;51.854;6.622;2022-08-02T03:21:52;8.32;;;4.30;;
14203;SDS011;7185;51.854;6.622;2022-08-02T03:24:24;11.48;;;5.30;;
14203;SDS011;7185;51.854;6.622;2022-08-02T03:26:56;10.25;;;4.65;;
14203;SDS011;7185;51.854;6.622;2022-08-02T03:29:27;6.47;;;4.57;;
14203;SDS011;7185;51.854;6.622;2022-08-02T03:32:01;8.88;;;5.80;;
14203;SDS011;7185;51.854;6.622;2022-08-02T03:34:32;10.57;;;5.70;;
14203;SDS011;7185;51.854;6.622;2022-08-02T03:37:04;10.07;;;5.10;;
14203;SDS011;7185;51.854;6.622;2022-08-02T03:39:36;13.45;;;5.50;;
14203;SDS011;7185;51.854;6.622;2022-08-02T03:42:08;8.63;;;5.07;;
14203;SDS011;7185;51.854;6.622;2022-08-02T03:44:41;8.85;;;5.28;;
14203;SDS011;7185;51.854;6.622;2022-08-02T03:47:14;10.48;;;4.95;;
14203;SDS011;7185;51.854;6.622;2022-08-02T03:49:47;9.93;;;5.47;;
14203;SDS011;7185;51.854;6.622;2022-08-02T03:52:20;10.95;;;6.13;;
14203;SDS011;7185;51.854;6.622;2022-08-02T03:54:53;9.10;;;5.57;;
14203;SDS011;7185;51.854;6.622;2022-08-02T03:57:24;9.40;;;5.30;;
14203;SDS011;7185;51.854;6.622;2022-08-02T03:59:57;8.27;;;5.15;;
14203;SDS011;7185;51.854;6.622;2022-08-02T04:02:30;8.25;;;4.95;;
14203;SDS011;7185;51.854;6.622;2022-08-02T04:05:02;13.85;;;6.32;;
14203;SDS011;7185;51.854;6.622;2022-08-02T04:07:34;9.32;;;5.15;;
14203;SDS011;7185;51.854;6.622;2022-08-02T04:10:06;9.75;;;5.50;;
14203;SDS011;7185;51.854;6.622;2022-08-02T04:12:38;8.05;;;5.00;;
14203;SDS011;7185;51.854;6.622;2022-08-02T04:15:10;7.00;;;5.10;;
14203;SDS011;7185;51.854;6.622;2022-08-02T04:17:47;8.73;;;4.97;;
14203;SDS011;7185;51.854;6.622;2022-08-02T04:20:23;9.05;;;5.70;;
14203;SDS011;7185;51.854;6.622;2022-08-02T04:22:59;10.63;;;5.78;;
14203;SDS011;7185;51.854;6.622;2022-08-02T04:25:33;10.00;;;5.40;;
14203;SDS011;7185;51.854;6.622;2022-08-02T04:28:07;7.95;;;5.03;;
14203;SDS011;7185;51.854;6.622;2022-08-02T04:30:41;12.27;;;5.53;;
14203;SDS011;7185;51.854;6.622;2022-08-02T04:33:14;10.13;;;5.75;;
14203;SDS011;7185;51.854;6.622;2022-08-02T04:35:47;11.30;;;6.18;;
14203;SDS011;7185;51.854;6.622;2022-08-02T04:38:19;9.05;;;5.50;;
14203;SDS011;7185;51.854;6.622;2022-08-02T04:40:52;9.93;;;5.70;;
14203;SDS011;7185;51.854;6.622;2022-08-02T04:43:24;9.43;;;5.85;;
14203;SDS011;7185;51.854;6.622;2022-08-02T04:45:56;9.88;;;5.80;;
14203;SDS011;7185;51.854;6.622;2022-08-02T04:48:29;8.93;;;5.53;;
14203;SDS011;7185;51.854;6.622;2022-08-02T04:51:01;13.52;;;5.85;;
14203;SDS011;7185;51.854;6.622;2022-08-02T04:53:33;9.10;;;5.38;;
14203;SDS011;7185;51.854;6.622;2022-08-02T04:56:04;10.75;;;5.68;;
14203;SDS011;7185;51.854;6.622;2022-08-02T04:58:36;10.27;;;5.68;;
14203;SDS011;7185;51.854;6.622;2022-08-02T05:01:08;11.77;;;5.53;;
14203;SDS011;7185;51.854;6.622;2022-08-02T05:03:41;12.18;;;6.05;;
14203;SDS011;7185;51.854;6.622;2022-08-02T05:06:12;9.88;;;5.18;;
14203;SDS011;7185;51.854;6.622;2022-08-02T05:08:45;10.60;;;4.90;;
14203;SDS011;7185;51.854;6.622;2022-08-02T05:11:17;12.40;;;5.38;;
14203;SDS011;7185;51.854;6.622;2022-08-02T05:13:49;12.50;;;5.57;;
14203;SDS011;7185;51.854;6.622;2022-08-02T05:16:21;9.35;;;5.20;;
14203;SDS011;7185;51.854;6.622;2022-08-02T05:18:54;11.50;;;5.70;;
14203;SDS011;7185;51.854;6.622;2022-08-02T05:21:25;8.27;;;5.32;;
14203;SDS011;7185;51.854;6.622;2022-08-02T05:23:57;12.57;;;5.50;;
14203;SDS011;7185;51.854;6.622;2022-08-02T05:26:28;9.27;;;5.10;;
14203;SDS011;7185;51.854;6.622;2022-08-02T05:29:00;13.57;;;4.88;;
14203;SDS011;7185;51.854;6.622;2022-08-02T05:31:32;11.68;;;5.70;;
14203;SDS011;7185;51.854;6.622;2022-08-02T05:34:05;12.40;;;5.10;;
14203;SDS011;7185;51.854;6.622;2022-08-02T05:36:37;6.78;;;4.95;;
14203;SDS011;7185;51.854;6.622;2022-08-02T05:39:09;10.45;;;5.30;;
14203;SDS011;7185;51.854;6.622;2022-08-02T05:41:40;9.00;;;5.07;;
14203;SDS011;7185;51.854;6.622;2022-08-02T05:44:12;9.55;;;5.15;;
14203;SDS011;7185;51.854;6.622;2022-08-02T05:46:43;12.85;;;5.45;;
14203;SDS011;7185;51.854;6.622;2022-08-02T05:49:16;10.93;;;5.72;;
14203;SDS011;7185;51.854;6.622;2022-08-02T05:51:50;12.32;;;5.70;;
14203;SDS011;7185;51.854;6.622;2022-08-02T05:54:31;9.90;;;5.40;;
14203;SDS011;7185;51.854;6.622;2022-08-02T05:57:13;9.82;;;5.82;;
14203;SDS011;7185;51.854;6.622;2022-08-02T05:59:53;10.15;;;5.80;;
14203;SDS011;7185;51.854;6.622;2022-08-02T06:02:37;9.95;;;5.82;;
14203;SDS011;7185;51.854;6.622;2022-08-02T06:05:20;9.45;;;6.13;;
14203;SDS011;7185;51.854;6.622;2022-08-02T06:07:53;10.55;;;6.30;;
14203;SDS011;7185;51.854;6.622;2022-08-02T06:10:28;14.73;;;6.05;;
14203;SDS011;7185;51.854;6.622;2022-08-02T06:13:04;14.77;;;6.32;;
14203;SDS011;7185;51.854;6.622;2022-08-02T06:15:39;10.50;;;5.80;;
14203;SDS011;7185;51.854;6.622;2022-08-02T06:18:12;10.90;;;6.60;;
14203;SDS011;7185;51.854;6.622;2022-08-02T06:20:48;13.13;;;7.45;;
14203;SDS011;7185;51.854;6.622;2022-08-02T06:23:20;18.13;;;7.35;;
14203;SDS011;7185;51.854;6.622;2022-08-02T06:25:54;13.88;;;7.00;;
14203;SDS011;7185;51.854;6.622;2022-08-02T06:28:27;21.08;;;10.50;;
14203;SDS011;7185;51.854;6.622;2022-08-02T06:31:00;16.30;;;7.15;;
14203;SDS011;7185;51.854;6.622;2022-08-02T06:33:32;17.08;;;7.82;;
14203;SDS011;7185;51.854;6.622;2022-08-02T06:36:07;19.23;;;8.32;;
14203;SDS011;7185;51.854;6.622;2022-08-02T06:38:42;21.20;;;7.80;;
14203;SDS011;7185;51.854;6.622;2022-08-02T06:41:18;13.80;;;6.50;;
14203;SDS011;7185;51.854;6.622;2022-08-02T06:43:53;13.45;;;7.45;;
14203;SDS011;7185;51.854;6.622;2022-08-02T06:46:27;16.30;;;7.85;;
14203;SDS011;7185;51.854;6.622;2022-08-02T06:48:59;14.35;;;6.53;;
14203;SDS011;7185;51.854;6.622;2022-08-02T06:51:33;19.98;;;8.10;;
14203;SDS011;7185;51.854;6.622;2022-08-02T06:54:05;16.63;;;6.65;;
14203;SDS011;7185;51.854;6.622;2022-08-02T06:56:37;12.88;;;7.07;;
14203;SDS011;7185;51.854;6.622;2022-08-02T06:59:09;18.55;;;7.82;;
14203;SDS011;7185;51.854;6.622;2022-08-02T07:01:41;14.55;;;7.82;;
14203;SDS011;7185;51.854;6.622;2022-08-02T07:04:13;16.23;;;8.15;;
14203;SDS011;7185;51.854;6.622;2022-08-02T07:06:47;17.77;;;7.57;;
14203;SDS011;7185;51.854;6.622;2022-08-02T07:09:18;15.05;;;8.18;;
14203;SDS011;7185;51.854;6.622;2022-08-02T07:11:50;16.30;;;8.02;;
14203;SDS011;7185;51.854;6.622;2022-08-02T07:14:22;17.20;;;7.78;;
14203;SDS011;7185;51.854;6.622;2022-08-02T07:16:53;14.05;;;7.88;;
14203;SDS011;7185;51.854;6.622;2022-08-02T07:19:25;13.73;;;7.32;;
14203;SDS011;7185;51.854;6.622;2022-08-02T07:21:58;13.65;;;7.60;;
14203;SDS011;7185;51.854;6.622;2022-08-02T07:24:30;11.18;;;7.25;;
14203;SDS011;7185;51.854;6.622;2022-08-02T07:27:02;13.35;;;7.07;;
14203;SDS011;7185;51.854;6.622;2022-08-02T07:29:34;15.20;;;6.78;;
14203;SDS011;7185;51.854;6.622;2022-08-02T07:32:05;12.10;;;6.68;;
14203;SDS011;7185;51.854;6.622;2022-08-02T07:34:38;16.05;;;6.78;;
14203;SDS011;7185;51.854;6.622;2022-08-02T07:37:11;14.75;;;6.90;;
14203;SDS011;7185;51.854;6.622;2022-08-02T07:39:42;12.57;;;7.07;;
14203;SDS011;7185;51.854;6.622;2022-08-02T07:42:14;14.82;;;6.93;;
14203;SDS011;7185;51.854;6.622;2022-08-02T07:44:46;13.50;;;7.10;;
14203;SDS011;7185;51.854;6.622;2022-08-02T07:47:17;14.18;;;6.35;;
14203;SDS011;7185;51.854;6.622;2022-08-02T07:49:49;13.52;;;7.53;;
14203;SDS011;7185;51.854;6.622;2022-08-02T07:52:22;11.27;;;6.68;;
14203;SDS011;7185;51.854;6.622;2022-08-02T07:54:54;12.35;;;6.28;;
14203;SDS011;7185;51.854;6.622;2022-08-02T07:57:25;12.57;;;6.40;;
14203;SDS011;7185;51.854;6.622;2022-08-02T07:59:57;9.88;;;5.38;;
14203;SDS011;7185;51.854;6.622;2022-08-02T08:02:29;11.20;;;6.68;;
14203;SDS011;7185;51.854;6.622;2022-08-02T08:05:00;10.77;;;6.22;;
14203;SDS011;7185;51.854;6.622;2022-08-02T08:07:33;9.55;;;4.85;;
14203;SDS011;7185;51.854;6.622;2022-08-02T08:10:06;10.52;;;4.97;;
14203;SDS011;7185;51.854;6.622;2022-08-02T08:12:38;11.02;;;4.28;;
14203;SDS011;7185;51.854;6.622;2022-08-02T08:15:10;9.65;;;4.47;;
14203;SDS011;7185;51.854;6.622;2022-08-02T08:17:42;9.38;;;4.63;;
14203;SDS011;7185;51.854;6.622;2022-08-02T08:20:13;11.73;;;5.13;;
14203;SDS011;7185;51.854;6.622;2022-08-02T08:22:46;11.18;;;3.80;;
14203;SDS011;7185;51.854;6.622;2022-08-02T08:25:19;9.40;;;3.42;;
14203;SDS011;7185;51.854;6.622;2022-08-02T08:27:51;9.43;;;3.58;;
14203;SDS011;7185;51.854;6.622;2022-08-02T08:30:23;7.90;;;3.50;;
14203;SDS011;7185;51.854;6.622;2022-08-02T08:32:55;10.05;;;4.10;;
14203;SDS011;7185;51.854;6.622;2022-08-02T08:35:26;12.00;;;4.50;;
14203;SDS011;7185;51.854;6.622;2022-08-02T08:37:59;7.82;;;3.60;;
14203;SDS011;7185;51.854;6.622;2022-08-02T08:40:31;7.00;;;4.50;;
14203;SDS011;7185;51.854;6.622;2022-08-02T08:43:03;6.55;;;4.13;;
14203;SDS011;7185;51.854;6.622;2022-08-02T08:45:35;7.15;;;4.22;;
14203;SDS011;7185;51.854;6.622;2022-08-02T08:48:09;13.70;;;4.13;;
14203;SDS011;7185;51.854;6.622;2022-08-02T08:50:44;9.38;;;4.47;;
14203;SDS011;7185;51.854;6.622;2022-08-02T08:53:27;10.15;;;4.90;;
14203;SDS011;7185;51.854;6.622;2022-08-02T08:56:02;9.80;;;4.30;;
14203;SDS011;7185;51.854;6.622;2022-08-02T08:58:34;8.32;;;4.20;;
14203;SDS011;7185;51.854;6.622;2022-08-02T09:01:05;6.80;;;3.97;;
14203;SDS011;7185;51.854;6.622;2022-08-02T09:03:37;8.23;;;4.43;;
14203;SDS011;7185;51.854;6.622;2022-08-02T09:06:09;8.25;;;4.53;;
14203;SDS011;7185;51.854;6.622;2022-08-02T09:08:42;6.90;;;4.22;;
14203;SDS011;7185;51.854;6.622;2022-08-02T09:11:14;9.88;;;4.65;;
14203;SDS011;7185;51.854;6.622;2022-08-02T09:13:48;8.68;;;3.65;;
14203;SDS011;7185;51.854;6.622;2022-08-02T09:16:28;12.25;;;3.63;;
14203;SDS011;7185;51.854;6.622;2022-08-02T09:19:02;8.93;;;4.13;;
14203;SDS011;7185;51.854;6.622;2022-08-02T09:21:47;9.35;;;4.45;;
14203;SDS011;7185;51.854;6.622;2022-08-02T09:24:22;7.22;;;3.97;;
14203;SDS011;7185;51.854;6.622;2022-08-02T09:26:54;7.63;;;3.97;;
14203;SDS011;7185;51.854;6.622;2022-08-02T09:29:26;9.75;;;3.60;;
14203;SDS011;7185;51.854;6.622;2022-08-02T09:32:01;6.90;;;3.80;;
14203;SDS011;7185;51.854;6.622;2022-08-02T09:34:46;4.75;;;3.58;;
14203;SDS011;7185;51.854;6.622;2022-08-02T09:37:22;7.63;;;3.50;;
14203;SDS011;7185;51.854;6.622;2022-08-02T09:39:58;6.70;;;3.85;;
14203;SDS011;7185;51.854;6.622;2022-08-02T09:42:31;10.80;;;4.45;;
14203;SDS011;7185;51.854;6.622;2022-08-02T09:45:03;6.82;;;3.58;;
14203;SDS011;7185;51.854;6.622;2022-08-02T09:47:36;5.75;;;3.85;;
14203;SDS011;7185;51.854;6.622;2022-08-02T09:50:07;7.15;;;3.63;;
14203;SDS011;7185;51.854;6.622;2022-08-02T09:52:40;5.63;;;3.60;;
14203;SDS011;7185;51.854;6.622;2022-08-02T09:55:14;5.55;;;3.53;;
14203;SDS011;7185;51.854;6.622;2022-08-02T09:57:46;6.13;;;3.78;;
14203;SDS011;7185;51.854;6.622;2022-08-02T10:00:18;8.13;;;3.88;;
14203;SDS011;7185;51.854;6.622;2022-08-02T10:03:06;7.10;;;3.72;;
14203;SDS011;7185;51.854;6.622;2022-08-02T10:05:46;7.55;;;3.80;;
14203;SDS011;7185;51.854;6.622;2022-08-02T10:08:19;5.47;;;3.42;;
14203;SDS011;7185;51.854;6.622;2022-08-02T10:10:53;6.97;;;4.40;;
14203;SDS011;7185;51.854;6.622;2022-08-02T10:13:31;6.15;;;3.42;;
14203;SDS011;7185;51.854;6.622;2022-08-02T10:16:04;6.40;;;3.60;;
14203;SDS011;7185;51.854;6.622;2022-08-02T10:18:36;7.90;;;3.38;;
14203;SDS011;7185;51.854;6.622;2022-08-02T10:21:13;5.60;;;2.95;;
14203;SDS011;7185;51.854;6.622;2022-08-02T10:23:46;5.95;;;3.38;;
14203;SDS011;7185;51.854;6.622;2022-08-02T10:26:21;6.97;;;3.70;;
14203;SDS011;7185;51.854;6.622;2022-08-02T10:28:54;5.03;;;3.35;;
14203;SDS011;7185;51.854;6.622;2022-08-02T10:31:26;4.57;;;3.38;;
14203;SDS011;7185;51.854;6.622;2022-08-02T10:34:02;5.55;;;3.70;;
14203;SDS011;7185;51.854;6.622;2022-08-02T10:36:38;7.50;;;4.10;;
14203;SDS011;7185;51.854;6.622;2022-08-02T10:39:11;6.20;;;3.35;;
14203;SDS011;7185;51.854;6.622;2022-08-02T10:41:46;4.55;;;2.85;;
14203;SDS011;7185;51.854;6.622;2022-08-02T10:44:19;4.97;;;3.08;;
14203;SDS011;7185;51.854;6.622;2022-08-02T10:49:51;8.77;;;3.40;;
14203;SDS011;7185;51.854;6.622;2022-08-02T10:52:24;4.38;;;2.33;;
14203;SDS011;7185;51.854;6.622;2022-08-02T10:54:56;6.07;;;2.42;;
14203;SDS011;7185;51.854;6.622;2022-08-02T10:57:31;7.88;;;2.63;;
14203;SDS011;7185;51.854;6.622;2022-08-02T11:00:08;6.90;;;2.70;;
14203;SDS011;7185;51.854;6.622;2022-08-02T11:02:43;4.03;;;2.47;;
14203;SDS011;7185;51.854;6.622;2022-08-02T11:05:17;2.63;;;1.70;;
14203;SDS011;7185;51.854;6.622;2022-08-02T11:07:56;4.90;;;2.47;;
14203;SDS011;7185;51.854;6.622;2022-08-02T11:10:32;3.33;;;1.92;;
14203;SDS011;7185;51.854;6.622;2022-08-02T11:13:08;4.13;;;2.58;;
14203;SDS011;7185;51.854;6.622;2022-08-02T11:15:47;4.97;;;2.50;;
14203;SDS011;7185;51.854;6.622;2022-08-02T11:18:20;3.78;;;2.17;;
14203;SDS011;7185;51.854;6.622;2022-08-02T11:26:40;5.57;;;2.80;;
14203;SDS011;7185;51.854;6.622;2022-08-02T11:29:14;5.45;;;2.58;;
14203;SDS011;7185;51.854;6.622;2022-08-02T11:31:47;4.80;;;2.47;;
14203;SDS011;7185;51.854;6.622;2022-08-02T11:34:18;4.10;;;2.47;;
14203;SDS011;7185;51.854;6.622;2022-08-02T11:36:56;3.00;;;1.98;;
14203;SDS011;7185;51.854;6.622;2022-08-02T11:39:27;4.05;;;2.55;;
14203;SDS011;7185;51.854;6.622;2022-08-02T11:41:59;3.35;;;2.00;;
14203;SDS011;7185;51.854;6.622;2022-08-02T11:44:39;4.10;;;1.95;;
14203;SDS011;7185;51.854;6.622;2022-08-02T11:47:12;4.60;;;2.03;;
14203;SDS011;7185;51.854;6.622;2022-08-02T11:49:43;3.35;;;1.95;;
14203;SDS011;7185;51.854;6.622;2022-08-02T11:52:16;4.18;;;2.17;;
14203;SDS011;7185;51.854;6.622;2022-08-02T11:54:48;13.50;;;2.00;;
14203;SDS011;7185;51.854;6.622;2022-08-02T11:57:20;5.85;;;1.95;;
14203;SDS011;7185;51.854;6.622;2022-08-02T11:59:54;6.90;;;2.10;;
14203;SDS011;7185;51.854;6.622;2022-08-02T12:02:27;5.10;;;2.10;;
14203;SDS011;7185;51.854;6.622;2022-08-02T12:05:01;3.72;;;1.67;;
14203;SDS011;7185;51.854;6.622;2022-08-02T12:07:35;3.92;;;1.50;;
14203;SDS011;7185;51.854;6.622;2022-08-02T12:10:09;4.65;;;1.80;;
14203;SDS011;7185;51.854;6.622;2022-08-02T12:12:48;3.03;;;1.85;;
14203;SDS011;7185;51.854;6.622;2022-08-02T12:15:35;4.22;;;1.85;;
14203;SDS011;7185;51.854;6.622;2022-08-02T12:18:09;4.43;;;2.05;;
14203;SDS011;7185;51.854;6.622;2022-08-02T12:21:00;3.13;;;1.83;;
14203;SDS011;7185;51.854;6.622;2022-08-02T12:23:32;3.35;;;1.77;;
14203;SDS011;7185;51.854;6.622;2022-08-02T12:26:13;3.97;;;1.70;;
14203;SDS011;7185;51.854;6.622;2022-08-02T12:28:45;5.57;;;1.90;;
14203;SDS011;7185;51.854;6.622;2022-08-02T12:31:18;4.40;;;1.85;;
14203;SDS011;7185;51.854;6.622;2022-08-02T12:33:51;4.75;;;1.90;;
14203;SDS011;7185;51.854;6.622;2022-08-02T12:36:25;4.30;;;1.70;;
14203;SDS011;7185;51.854;6.622;2022-08-02T12:38:59;7.25;;;1.80;;
14203;SDS011;7185;51.854;6.622;2022-08-02T12:41:33;3.00;;;1.65;;
14203;SDS011;7185;51.854;6.622;2022-08-02T12:44:13;4.60;;;1.55;;
14203;SDS011;7185;51.854;6.622;2022-08-02T12:46:58;3.45;;;1.60;;
14203;SDS011;7185;51.854;6.622;2022-08-02T12:49:30;3.63;;;1.85;;
14203;SDS011;7185;51.854;6.622;2022-08-02T12:52:16;5.45;;;1.95;;
14203;SDS011;7185;51.854;6.622;2022-08-02T12:54:49;4.10;;;1.80;;
14203;SDS011;7185;51.854;6.622;2022-08-02T12:57:21;4.20;;;1.70;;
14203;SDS011;7185;51.854;6.622;2022-08-02T12:59:54;3.05;;;1.70;;
14203;SDS011;7185;51.854;6.622;2022-08-02T13:02:27;3.40;;;1.90;;
14203;SDS011;7185;51.854;6.622;2022-08-02T13:04:58;3.70;;;1.90;;
14203;SDS011;7185;51.854;6.622;2022-08-02T13:07:30;4.80;;;1.70;;
14203;SDS011;7185;51.854;6.622;2022-08-02T13:10:03;3.42;;;1.67;;
14203;SDS011;7185;51.854;6.622;2022-08-02T13:12:35;4.07;;;1.88;;
14203;SDS011;7185;51.854;6.622;2022-08-02T13:15:08;3.28;;;1.70;;
14203;SDS011;7185;51.854;6.622;2022-08-02T13:17:42;4.10;;;1.85;;
14203;SDS011;7185;51.854;6.622;2022-08-02T13:20:14;5.25;;;1.80;;
14203;SDS011;7185;51.854;6.622;2022-08-02T13:22:45;5.50;;;2.03;;
14203;SDS011;7185;51.854;6.622;2022-08-02T13:25:17;2.58;;;1.75;;
14203;SDS011;7185;51.854;6.622;2022-08-02T13:27:51;5.63;;;1.98;;
14203;SDS011;7185;51.854;6.622;2022-08-02T13:30:23;3.63;;;2.10;;
14203;SDS011;7185;51.854;6.622;2022-08-02T13:32:56;2.22;;;1.60;;
14203;SDS011;7185;51.854;6.622;2022-08-02T13:35:28;5.55;;;1.75;;
14203;SDS011;7185;51.854;6.622;2022-08-02T13:37:59;2.72;;;1.75;;
14203;SDS011;7185;51.854;6.622;2022-08-02T13:40:33;2.97;;;1.52;;
14203;SDS011;7185;51.854;6.622;2022-08-02T13:43:25;2.50;;;1.67;;
14203;SDS011;7185;51.854;6.622;2022-08-02T13:45:57;3.03;;;1.50;;
14203;SDS011;7185;51.854;6.622;2022-08-02T13:48:30;2.40;;;1.45;;
14203;SDS011;7185;51.854;6.622;2022-08-02T13:51:02;5.15;;;1.70;;
14203;SDS011;7185;51.854;6.622;2022-08-02T13:53:36;8.82;;;1.73;;
14203;SDS011;7185;51.854;6.622;2022-08-02T13:56:08;2.85;;;1.67;;
14203;SDS011;7185;51.854;6.622;2022-08-02T13:58:40;4.20;;;1.48;;
14203;SDS011;7185;51.854;6.622;2022-08-02T14:01:11;3.20;;;1.85;;
14203;SDS011;7185;51.854;6.622;2022-08-02T14:03:44;4.90;;;1.60;;
14203;SDS011;7185;51.854;6.622;2022-08-02T14:06:16;6.25;;;1.73;;
14203;SDS011;7185;51.854;6.622;2022-08-02T14:08:48;3.33;;;1.58;;
14203;SDS011;7185;51.854;6.622;2022-08-02T14:11:19;2.35;;;1.48;;
14203;SDS011;7185;51.854;6.622;2022-08-02T14:13:51;3.55;;;1.80;;
14203;SDS011;7185;51.854;6.622;2022-08-02T14:16:23;5.25;;;2.00;;
14203;SDS011;7185;51.854;6.622;2022-08-02T14:18:56;3.55;;;1.55;;
14203;SDS011;7185;51.854;6.622;2022-08-02T14:21:28;3.05;;;1.63;;
14203;SDS011;7185;51.854;6.622;2022-08-02T14:23:59;4.95;;;1.88;;
14203;SDS011;7185;51.854;6.622;2022-08-02T14:26:31;4.18;;;1.65;;
14203;SDS011;7185;51.854;6.622;2022-08-02T14:29:03;2.50;;;1.75;;
14203;SDS011;7185;51.854;6.622;2022-08-02T14:34:09;3.28;;;1.40;;
14203;SDS011;7185;51.854;6.622;2022-08-02T14:36:41;3.90;;;1.40;;
14203;SDS011;7185;51.854;6.622;2022-08-02T14:39:12;4.53;;;1.83;;
14203;SDS011;7185;51.854;6.622;2022-08-02T14:41:44;3.45;;;1.45;;
14203;SDS011;7185;51.854;6.622;2022-08-02T14:44:16;4.95;;;1.42;;
14203;SDS011;7185;51.854;6.622;2022-08-02T14:46:47;3.05;;;1.52;;
14203;SDS011;7185;51.854;6.622;2022-08-02T14:49:21;3.33;;;1.90;;
14203;SDS011;7185;51.854;6.622;2022-08-02T14:51:53;3.15;;;1.70;;
14203;SDS011;7185;51.854;6.622;2022-08-02T14:54:25;3.92;;;1.80;;
14203;SDS011;7185;51.854;6.622;2022-08-02T14:56:59;3.88;;;1.80;;
14203;SDS011;7185;51.854;6.622;2022-08-02T14:59:32;3.83;;;1.67;;
14203;SDS011;7185;51.854;6.622;2022-08-02T15:02:04;5.78;;;1.77;;
14203;SDS011;7185;51.854;6.622;2022-08-02T15:04:37;4.22;;;1.40;;
14203;SDS011;7185;51.854;6.622;2022-08-02T15:07:14;2.55;;;1.35;;
14203;SDS011;7185;51.854;6.622;2022-08-02T15:09:53;2.03;;;1.27;;
14203;SDS011;7185;51.854;6.622;2022-08-02T15:12:44;2.67;;;1.50;;
14203;SDS011;7185;51.854;6.622;2022-08-02T15:15:24;3.65;;;1.63;;
14203;SDS011;7185;51.854;6.622;2022-08-02T15:18:14;6.13;;;1.60;;
14203;SDS011;7185;51.854;6.622;2022-08-02T15:21:09;4.18;;;1.60;;
14203;SDS011;7185;51.854;6.622;2022-08-02T15:23:56;2.78;;;1.20;;
14203;SDS011;7185;51.854;6.622;2022-08-02T15:27:03;2.10;;;1.30;;
14203;SDS011;7185;51.854;6.622;2022-08-02T15:29:54;3.28;;;1.50;;
14203;SDS011;7185;51.854;6.622;2022-08-02T15:32:34;4.95;;;1.67;;
14203;SDS011;7185;51.854;6.622;2022-08-02T15:38:50;2.45;;;1.20;;
14203;SDS011;7185;51.854;6.622;2022-08-02T15:41:22;2.10;;;1.20;;
14203;SDS011;7185;51.854;6.622;2022-08-02T15:43:54;3.85;;;1.50;;
14203;SDS011;7185;51.854;6.622;2022-08-02T15:46:26;4.90;;;1.98;;
14203;SDS011;7185;51.854;6.622;2022-08-02T15:48:57;3.95;;;1.95;;
14203;SDS011;7185;51.854;6.622;2022-08-02T15:51:29;2.35;;;1.45;;
14203;SDS011;7185;51.854;6.622;2022-08-02T15:54:02;3.40;;;1.33;;
14203;SDS011;7185;51.854;6.622;2022-08-02T15:56:34;7.00;;;1.42;;